createdAt,value
2018-12-26T00:01:13.251Z,40.93
2018-12-26T00:03:42.657Z,53.83
2018-12-26T00:06:12.263Z,52.57
2018-12-26T00:11:27.008Z,51.73
2018-12-26T00:13:56.538Z,47.33
2018-12-26T00:16:26.028Z,52.10
2018-12-26T00:18:55.554Z,51.43
2018-12-26T00:21:25.022Z,50.87
2018-12-26T00:24:04.255Z,60.43
2018-12-26T00:26:33.730Z,53.10
2018-12-26T00:29:03.245Z,57.80
2018-12-26T00:31:33.121Z,55.47
2018-12-26T00:34:21.410Z,56.40
2018-12-26T00:36:50.746Z,54.63
2018-12-26T00:39:20.194Z,64.43
2018-12-26T00:41:49.723Z,62.17
2018-12-26T00:44:19.241Z,55.90
2018-12-26T00:46:48.693Z,52.00
2018-12-26T00:49:18.113Z,59.20
2018-12-26T00:51:47.581Z,65.33
2018-12-26T00:54:17.084Z,54.93
2018-12-26T00:56:47.122Z,65.03
2018-12-26T00:59:16.563Z,61.53
2018-12-26T01:01:46.009Z,58.30
2018-12-26T01:04:15.609Z,58.23
2018-12-26T01:06:46.766Z,56.20
2018-12-26T01:09:16.210Z,62.17
2018-12-26T01:11:45.731Z,61.13
2018-12-26T01:14:15.174Z,70.17
2018-12-26T01:16:44.626Z,67.63
2018-12-26T01:19:14.142Z,61.07
2018-12-26T01:21:43.586Z,71.77
2018-12-26T01:24:13.092Z,68.43
2018-12-26T01:26:42.619Z,75.33
2018-12-26T01:29:12.075Z,84.50
2018-12-26T01:31:44.282Z,82.37
2018-12-26T01:34:13.906Z,87.63
2018-12-26T01:37:02.177Z,84.33
2018-12-26T01:39:32.058Z,100.97
2018-12-26T01:42:01.506Z,90.97
2018-12-26T01:44:32.057Z,96.63
2018-12-26T01:47:04.051Z,93.53
2018-12-26T01:49:33.482Z,99.97
2018-12-26T01:52:02.970Z,109.57
2018-12-26T01:54:32.486Z,102.40
2018-12-26T01:57:01.933Z,109.17
2018-12-26T01:59:31.280Z,109.63
2018-12-26T02:02:03.325Z,109.10
2018-12-26T02:04:32.674Z,117.97
2018-12-26T02:07:02.130Z,115.30
2018-12-26T02:09:31.722Z,104.77
2018-12-26T02:12:01.174Z,105.27
2018-12-26T02:14:30.620Z,102.63
2018-12-26T02:17:01.152Z,97.30
2018-12-26T02:19:31.429Z,100.23
2018-12-26T02:22:00.878Z,96.50
2018-12-26T02:24:30.494Z,91.23
2018-12-26T02:26:59.941Z,101.00
2018-12-26T02:29:29.296Z,102.57
2018-12-26T02:31:58.714Z,85.00
2018-12-26T02:34:28.055Z,98.77
2018-12-26T02:36:57.602Z,97.67
2018-12-26T02:39:27.018Z,98.50
2018-12-26T02:41:56.494Z,108.03
2018-12-26T02:44:25.936Z,103.00
2018-12-26T02:46:55.486Z,101.73
2018-12-26T02:49:24.935Z,101.93
2018-12-26T02:51:54.398Z,106.10
2018-12-26T02:54:23.910Z,108.97
2018-12-26T02:56:53.259Z,95.80
2018-12-26T02:59:22.713Z,97.13
2018-12-26T03:01:52.243Z,105.00
2018-12-26T03:04:21.802Z,123.70
2018-12-26T03:06:51.246Z,114.00
2018-12-26T03:09:20.765Z,120.40
2018-12-26T03:11:50.588Z,106.07
2018-12-26T03:14:20.026Z,99.27
2018-12-26T03:16:49.549Z,103.13
2018-12-26T03:19:18.989Z,94.60
2018-12-26T03:21:48.455Z,96.33
2018-12-26T03:24:18.047Z,105.83
2018-12-26T03:26:55.818Z,94.80
2018-12-26T03:29:18.481Z,90.60
2018-12-26T03:31:48.018Z,110.37
2018-12-26T03:34:17.453Z,103.80
2018-12-26T03:36:47.017Z,125.93
2018-12-26T03:39:26.139Z,111.77
2018-12-26T03:41:56.465Z,137.43
2018-12-26T03:44:25.919Z,133.13
2018-12-26T03:46:55.450Z,112.87
2018-12-26T03:49:24.885Z,124.20
2018-12-26T03:51:54.941Z,124.20
2018-12-26T03:54:24.450Z,116.73
2018-12-26T03:56:54.238Z,102.67
2018-12-26T03:59:23.673Z,115.13
2018-12-26T04:01:53.201Z,110.10
2018-12-26T04:04:22.680Z,101.63
2018-12-26T04:06:52.317Z,108.33
2018-12-26T04:09:21.817Z,112.27
2018-12-26T04:11:54.304Z,117.80
2018-12-26T04:14:42.606Z,117.13
2018-12-26T04:17:13.071Z,126.37
2018-12-26T04:19:42.530Z,115.67
2018-12-26T04:22:12.181Z,120.03
2018-12-26T04:24:41.664Z,122.67
2018-12-26T04:27:15.543Z,120.47
2018-12-26T04:29:42.361Z,140.77
2018-12-26T04:32:30.562Z,145.73
2018-12-26T04:35:19.843Z,140.17
2018-12-26T04:37:49.291Z,165.43
2018-12-26T04:40:18.629Z,151.43
2018-12-26T04:42:48.212Z,155.33
2018-12-26T04:45:17.670Z,162.13
2018-12-26T04:47:47.125Z,170.93
2018-12-26T04:50:16.586Z,171.27
2018-12-26T04:53:04.784Z,176.20
2018-12-26T04:55:34.663Z,185.03
2018-12-26T04:58:04.113Z,147.33
2018-12-26T05:00:33.473Z,122.63
2018-12-26T05:03:03.133Z,128.60
2018-12-26T05:05:32.628Z,111.13
2018-12-26T05:08:02.093Z,110.83
2018-12-26T05:10:31.613Z,95.10
2018-12-26T05:13:01.057Z,104.60
2018-12-26T05:15:30.506Z,94.57
2018-12-26T05:18:00.083Z,100.57
2018-12-26T05:20:29.525Z,112.23
2018-12-26T05:23:05.314Z,104.30
2018-12-26T05:25:35.113Z,103.80
2018-12-26T05:28:23.406Z,97.77
2018-12-26T05:30:53.409Z,95.47
2018-12-26T05:33:23.015Z,88.05
2018-12-26T05:35:52.599Z,91.37
2018-12-26T05:38:22.165Z,78.13
2018-12-26T05:40:51.655Z,80.77
2018-12-26T05:43:21.281Z,83.27
2018-12-26T05:46:09.515Z,82.45
2018-12-26T05:48:39.062Z,79.90
2018-12-26T05:51:10.753Z,89.07
2018-12-26T05:53:40.213Z,84.40
2018-12-26T05:56:09.739Z,79.10
2018-12-26T05:58:39.112Z,84.03
2018-12-26T06:01:08.680Z,72.78
2018-12-26T06:03:57.013Z,83.07
2018-12-26T06:06:26.383Z,73.95
2018-12-26T06:08:55.825Z,69.15
2018-12-26T06:11:25.370Z,80.80
2018-12-26T06:13:54.817Z,82.67
2018-12-26T06:16:24.164Z,61.60
2018-12-26T06:18:53.600Z,64.80
2018-12-26T06:21:41.816Z,64.20
2018-12-26T06:24:11.367Z,73.78
2018-12-26T06:26:40.810Z,70.32
2018-12-26T06:29:29.123Z,71.07
2018-12-26T06:31:58.553Z,63.65
2018-12-26T06:34:28.043Z,64.77
2018-12-26T06:36:58.522Z,62.55
2018-12-26T06:39:29.655Z,60.23
2018-12-26T06:41:59.110Z,58.28
2018-12-26T06:44:28.707Z,55.83
2018-12-26T06:46:58.145Z,52.03
2018-12-26T06:49:28.874Z,44.33
2018-12-26T06:51:58.511Z,43.55
2018-12-26T06:54:27.963Z,36.05
2018-12-26T06:56:57.433Z,42.03
2018-12-26T06:59:26.999Z,49.55
2018-12-26T07:01:56.505Z,53.15
2018-12-26T07:04:25.963Z,44.90
2018-12-26T07:06:55.491Z,54.73
2018-12-26T07:09:24.950Z,49.93
2018-12-26T07:11:54.418Z,47.17
2018-12-26T07:14:23.958Z,47.48
2018-12-26T07:16:53.410Z,42.00
2018-12-26T07:19:23.165Z,37.50
2018-12-26T07:21:52.626Z,47.23
2018-12-26T07:24:22.090Z,51.60
2018-12-26T07:26:51.558Z,50.33
2018-12-26T07:29:21.111Z,47.90
2018-12-26T07:31:50.481Z,52.03
2018-12-26T07:34:20.025Z,40.33
2018-12-26T07:36:49.627Z,39.85
2018-12-26T07:39:21.908Z,43.78
2018-12-26T07:41:51.276Z,44.30
2018-12-26T07:44:21.802Z,48.87
2018-12-26T07:46:51.354Z,39.30
2018-12-26T07:49:20.799Z,33.35
2018-12-26T07:51:51.049Z,44.40
2018-12-26T07:54:20.809Z,38.95
2018-12-26T07:57:09.205Z,41.35
2018-12-26T07:59:38.793Z,43.63
2018-12-26T08:02:08.243Z,55.65
2018-12-26T08:04:37.761Z,47.90
2018-12-26T08:07:07.226Z,46.13
2018-12-26T08:09:36.835Z,43.68
2018-12-26T08:12:06.368Z,33.92
2018-12-26T08:17:21.979Z,41.28
2018-12-26T08:19:51.443Z,35.13
2018-12-26T08:22:20.897Z,34.88
2018-12-26T08:24:50.431Z,29.63
2018-12-26T08:27:19.953Z,23.90
2018-12-26T08:29:49.509Z,21.87
2018-12-26T08:32:19.071Z,15.93
2018-12-26T08:34:49.246Z,19.70
2018-12-26T08:37:18.715Z,17.30
2018-12-26T08:39:48.234Z,21.93
2018-12-26T08:42:18.809Z,14.87
2018-12-26T08:44:48.604Z,14.35
2018-12-26T08:47:18.267Z,14.60
2018-12-26T08:49:48.656Z,20.70
2018-12-26T08:52:18.151Z,23.27
2018-12-26T08:54:47.710Z,19.87
2018-12-26T08:57:17.408Z,18.10
2018-12-26T08:59:46.901Z,21.57
2018-12-26T09:02:16.809Z,27.95
2018-12-26T09:04:46.496Z,15.72
2018-12-26T09:07:15.945Z,21.97
2018-12-26T09:09:45.495Z,16.12
2018-12-26T09:12:14.826Z,21.37
2018-12-26T09:14:44.374Z,17.25
2018-12-26T09:17:14.727Z,24.82
2018-12-26T09:19:44.105Z,21.87
2018-12-26T09:22:13.669Z,15.38
2018-12-26T09:24:43.245Z,11.33
2018-12-26T09:27:13.312Z,23.85
2018-12-26T09:29:42.791Z,33.20
2018-12-26T09:32:12.344Z,14.33
2018-12-26T09:34:41.778Z,8.33
2018-12-26T09:37:11.245Z,17.17
2018-12-26T09:39:41.153Z,13.03
2018-12-26T09:42:10.601Z,13.32
2018-12-26T09:44:59.002Z,9.05
2018-12-26T09:47:28.478Z,17.50
2018-12-26T09:49:58.026Z,11.33
2018-12-26T09:52:27.599Z,13.93
2018-12-26T09:54:56.971Z,17.42
2018-12-26T09:57:26.448Z,11.97
2018-12-26T10:00:14.755Z,12.03
2018-12-26T10:02:44.282Z,8.05
2018-12-26T10:05:13.780Z,10.65
2018-12-26T10:07:45.787Z,9.65
2018-12-26T10:10:15.313Z,10.48
2018-12-26T10:12:44.699Z,10.95
2018-12-26T10:15:15.272Z,12.85
2018-12-26T10:18:17.263Z,15.15
2018-12-26T10:20:35.954Z,11.25
2018-12-26T10:23:05.768Z,9.48
2018-12-26T10:25:35.638Z,11.68
2018-12-26T10:28:07.207Z,17.32
2018-12-26T10:30:37.015Z,11.35
2018-12-26T10:33:06.477Z,12.35
2018-12-26T10:35:36.000Z,8.63
2018-12-26T10:38:05.470Z,13.20
2018-12-26T10:40:34.948Z,14.18
2018-12-26T10:43:04.533Z,12.10
2018-12-26T10:45:33.886Z,18.82
2018-12-26T10:48:03.361Z,14.55
2018-12-26T10:50:33.155Z,14.07
2018-12-26T10:53:02.655Z,16.30
2018-12-26T10:55:32.126Z,15.03
2018-12-26T10:58:01.655Z,19.27
2018-12-26T11:00:31.149Z,9.98
2018-12-26T11:03:00.642Z,14.70
2018-12-26T11:05:30.194Z,13.43
2018-12-26T11:07:59.691Z,9.28
2018-12-26T11:10:29.506Z,15.85
2018-12-26T11:12:58.979Z,16.10
2018-12-26T11:15:28.427Z,19.57
2018-12-26T11:17:58.166Z,14.68
2018-12-26T11:20:27.808Z,15.30
2018-12-26T11:22:57.269Z,10.68
2018-12-26T11:25:27.834Z,14.73
2018-12-26T11:27:57.387Z,12.78
2018-12-26T11:30:26.862Z,9.90
2018-12-26T11:32:56.398Z,15.20
2018-12-26T11:35:26.093Z,10.10
2018-12-26T11:37:55.559Z,11.10
2018-12-26T11:40:25.480Z,9.70
2018-12-26T11:42:55.093Z,14.53
2018-12-26T11:45:24.546Z,12.73
2018-12-26T11:47:54.014Z,14.43
2018-12-26T11:50:23.550Z,12.45
2018-12-26T11:52:53.127Z,7.30
2018-12-26T11:55:22.655Z,11.63
2018-12-26T11:57:52.338Z,13.85
2018-12-26T12:00:21.941Z,11.90
2018-12-26T12:02:53.483Z,14.18
2018-12-26T12:05:23.152Z,16.02
2018-12-26T12:07:52.662Z,12.70
2018-12-26T12:10:22.263Z,8.23
2018-12-26T12:12:51.710Z,9.78
2018-12-26T12:15:21.213Z,9.40
2018-12-26T12:17:50.715Z,13.60
2018-12-26T12:20:20.294Z,20.27
2018-12-26T12:23:08.609Z,15.00
2018-12-26T12:25:38.531Z,18.73
2018-12-26T12:28:08.143Z,15.23
2018-12-26T12:30:38.665Z,15.55
2018-12-26T12:35:51.353Z,14.45
2018-12-26T12:38:20.816Z,17.15
2018-12-26T12:40:50.274Z,13.38
2018-12-26T12:43:19.993Z,13.18
2018-12-26T12:45:49.467Z,18.52
2018-12-26T12:48:19.045Z,19.15
2018-12-26T12:50:48.571Z,15.53
2018-12-26T12:53:19.910Z,17.30
2018-12-26T12:55:49.454Z,17.55
2018-12-26T12:58:18.976Z,17.98
2018-12-26T13:00:48.415Z,17.15
2018-12-26T13:03:19.097Z,14.45
2018-12-26T13:05:49.542Z,17.60
2018-12-26T13:08:21.800Z,12.25
2018-12-26T13:10:51.318Z,23.55
2018-12-26T13:13:20.782Z,19.90
2018-12-26T13:15:50.253Z,28.00
2018-12-26T13:18:19.794Z,23.18
2018-12-26T13:20:49.319Z,18.30
2018-12-26T13:23:18.773Z,27.20
2018-12-26T13:25:48.376Z,29.60
2018-12-26T13:28:17.850Z,19.92
2018-12-26T13:30:47.323Z,24.98
2018-12-26T13:33:16.881Z,25.55
2018-12-26T13:35:46.349Z,24.72
2018-12-26T13:38:15.913Z,23.87
2018-12-26T13:40:45.340Z,19.32
2018-12-26T13:43:14.794Z,18.52
2018-12-26T13:45:47.313Z,21.90
2018-12-26T13:48:16.790Z,24.60
2018-12-26T13:51:05.034Z,22.02
2018-12-26T13:53:34.661Z,23.90
2018-12-26T13:56:04.115Z,27.87
2018-12-26T13:58:33.622Z,23.75
2018-12-26T14:01:22.039Z,32.95
2018-12-26T14:03:51.642Z,17.50
2018-12-26T14:11:43.997Z,26.35
2018-12-26T14:14:13.709Z,30.60
2018-12-26T14:16:45.865Z,37.13
2018-12-26T14:19:15.286Z,41.02
2018-12-26T14:21:44.777Z,33.88
2018-12-26T14:24:14.254Z,39.42
2018-12-26T14:26:43.855Z,44.23
2018-12-26T14:29:13.250Z,39.80
2018-12-26T14:31:42.718Z,43.58
2018-12-26T14:34:12.286Z,38.00
2018-12-26T14:36:41.766Z,33.73
2018-12-26T14:39:11.679Z,40.65
2018-12-26T14:41:41.338Z,38.28
2018-12-26T14:47:12.058Z,37.00
2018-12-26T14:49:41.538Z,49.70
2018-12-26T14:52:10.995Z,46.35
2018-12-26T14:54:40.684Z,48.83
2018-12-26T14:57:10.210Z,56.05
2018-12-26T14:59:39.764Z,46.08
2018-12-26T15:02:09.740Z,41.30
2018-12-26T15:04:57.963Z,42.33
2018-12-26T15:07:27.417Z,44.83
2018-12-26T15:09:56.891Z,42.38
2018-12-26T15:12:26.383Z,48.63
2018-12-26T15:14:56.331Z,49.38
2018-12-26T15:17:25.805Z,49.30
2018-12-26T15:19:55.352Z,51.45
2018-12-26T15:22:43.780Z,41.75
2018-12-26T15:25:13.266Z,46.05
2018-12-26T15:27:42.839Z,54.58
2018-12-26T15:30:12.369Z,54.08
2018-12-26T15:32:41.930Z,56.53
2018-12-26T15:35:30.429Z,51.85
2018-12-26T15:37:59.889Z,57.48
2018-12-26T15:40:29.345Z,46.85
2018-12-26T15:42:58.789Z,60.50
2018-12-26T15:45:28.255Z,55.45
2018-12-26T15:47:57.748Z,51.55
2018-12-26T15:50:27.308Z,52.48
2018-12-26T15:53:15.527Z,53.98
2018-12-26T15:55:45.181Z,54.27
2018-12-26T15:58:14.653Z,50.25
2018-12-26T16:00:44.107Z,47.85
2018-12-26T16:05:47.183Z,66.42
2018-12-26T16:08:16.654Z,56.13
2018-12-26T16:10:46.091Z,56.65
2018-12-26T16:13:15.638Z,55.20
2018-12-26T16:15:45.082Z,48.35
2018-12-26T16:18:14.566Z,58.25
2018-12-26T16:20:44.112Z,58.55
2018-12-26T16:23:13.582Z,49.35
2018-12-26T16:25:43.067Z,47.33
2018-12-26T16:28:12.589Z,48.55
2018-12-26T16:30:46.065Z,53.50
2018-12-26T16:33:13.050Z,47.93
2018-12-26T16:35:42.608Z,49.30
2018-12-26T16:38:12.099Z,57.20
2018-12-26T16:41:00.382Z,49.18
2018-12-26T16:43:29.830Z,44.80
2018-12-26T16:45:59.359Z,58.50
2018-12-26T16:48:28.896Z,50.05
2018-12-26T16:50:58.393Z,51.13
2018-12-26T16:53:28.214Z,54.27
2018-12-26T16:55:58.974Z,42.35
2018-12-26T16:58:47.194Z,56.45
2018-12-26T17:01:16.766Z,52.40
2018-12-26T17:03:46.228Z,50.78
2018-12-26T17:06:15.727Z,51.02
2018-12-26T17:08:45.271Z,53.60
2018-12-26T17:11:14.710Z,49.88
2018-12-26T17:13:45.178Z,52.35
2018-12-26T17:16:14.695Z,58.73
2018-12-26T17:18:44.158Z,59.18
2018-12-26T17:21:13.622Z,49.95
2018-12-26T17:23:43.191Z,45.80
2018-12-26T17:26:12.649Z,52.23
2018-12-26T17:28:42.123Z,51.10
2018-12-26T17:31:11.634Z,50.95
2018-12-26T17:33:44.058Z,57.53
2018-12-26T17:36:13.587Z,50.67
2018-12-26T17:38:46.123Z,48.40
2018-12-26T17:41:16.021Z,52.35
2018-12-26T17:43:45.554Z,54.70
2018-12-26T17:46:15.154Z,56.70
2018-12-26T17:48:44.614Z,53.68
2018-12-26T17:51:15.655Z,56.18
2018-12-26T17:53:52.341Z,55.40
2018-12-26T17:59:33.190Z,60.12
2018-12-26T18:02:11.358Z,66.05
2018-12-26T18:04:40.823Z,60.75
2018-12-26T18:07:10.327Z,63.80
2018-12-26T18:09:39.932Z,69.20
2018-12-26T18:12:11.998Z,64.07
2018-12-26T18:14:40.534Z,64.82
2018-12-26T18:17:10.051Z,67.90
2018-12-26T18:19:39.540Z,73.57
2018-12-26T18:22:09.144Z,78.37
2018-12-26T18:24:38.682Z,75.30
2018-12-26T18:29:53.733Z,70.70
2018-12-26T18:32:23.163Z,73.97
2018-12-26T18:34:52.630Z,87.23
2018-12-26T18:37:22.496Z,83.97
2018-12-26T18:39:52.013Z,87.43
2018-12-26T18:42:21.484Z,88.50
2018-12-26T18:44:51.052Z,95.07
2018-12-26T18:47:20.411Z,89.27
2018-12-26T18:49:52.807Z,84.03
2018-12-26T18:52:22.444Z,83.13
2018-12-26T18:54:52.713Z,81.27
2018-12-26T18:57:22.183Z,81.67
2018-12-26T18:59:51.792Z,78.80
2018-12-26T19:02:21.262Z,73.83
2018-12-26T19:04:50.726Z,73.33
2018-12-26T19:07:20.260Z,78.77
2018-12-26T19:09:49.736Z,79.37
2018-12-26T19:12:19.199Z,71.37
2018-12-26T19:14:48.765Z,86.97
2018-12-26T19:17:18.237Z,81.80
2018-12-26T19:19:47.685Z,82.13
2018-12-26T19:22:18.742Z,79.93
2018-12-26T19:24:48.351Z,86.97
2018-12-26T19:27:17.787Z,92.23
2018-12-26T19:29:47.462Z,87.73
2018-12-26T19:32:18.349Z,87.90
2018-12-26T19:34:48.864Z,87.30
2018-12-26T19:37:18.414Z,97.23
2018-12-26T19:39:47.874Z,97.60
2018-12-26T19:42:17.334Z,85.57
2018-12-26T19:44:46.887Z,75.97
2018-12-26T19:47:16.466Z,86.80
2018-12-26T19:49:45.971Z,90.90
2018-12-26T19:52:15.605Z,89.07
2018-12-26T19:54:44.954Z,86.77
2018-12-26T19:57:14.417Z,89.77
2018-12-26T19:59:43.947Z,87.97
2018-12-26T20:02:13.460Z,91.13
2018-12-26T20:04:42.914Z,96.27
2018-12-26T20:07:15.123Z,86.37
2018-12-26T20:09:44.691Z,75.20
2018-12-26T20:12:14.132Z,79.83
2018-12-26T20:14:43.699Z,71.00
2018-12-26T20:17:13.275Z,72.73
2018-12-26T20:19:42.730Z,78.87
2018-12-26T20:22:12.340Z,66.43
2018-12-26T20:24:41.838Z,64.40
2018-12-26T20:27:11.326Z,76.37
2018-12-26T20:29:40.866Z,63.63
2018-12-26T20:32:10.315Z,67.93
2018-12-26T20:34:39.761Z,66.17
2018-12-26T20:37:09.301Z,57.77
2018-12-26T20:39:38.773Z,64.83
2018-12-26T20:42:08.226Z,65.70
2018-12-26T20:44:37.770Z,65.00
2018-12-26T20:47:07.145Z,69.70
2018-12-26T20:49:36.594Z,63.43
2018-12-26T20:52:25.007Z,61.20
2018-12-26T20:54:54.464Z,65.03
2018-12-26T20:57:23.977Z,67.37
2018-12-26T20:59:53.478Z,66.90
2018-12-26T21:02:23.022Z,61.30
2018-12-26T21:04:52.477Z,63.60
2018-12-26T21:07:22.014Z,61.27
2018-12-26T21:09:51.475Z,65.37
2018-12-26T21:12:20.939Z,60.43
2018-12-26T21:14:51.208Z,58.13
2018-12-26T21:17:20.554Z,64.10
2018-12-26T21:19:50.006Z,62.63
2018-12-26T21:22:19.536Z,55.17
2018-12-26T21:24:49.992Z,63.50
2018-12-26T21:27:19.447Z,69.43
2018-12-26T21:29:48.973Z,56.47
2018-12-26T21:32:18.536Z,62.53
2018-12-26T21:34:47.995Z,54.03
2018-12-26T21:37:17.518Z,61.50
2018-12-26T21:39:46.973Z,50.47
2018-12-26T21:42:16.484Z,61.60
2018-12-26T21:44:46.021Z,49.97
2018-12-26T21:47:15.487Z,56.20
2018-12-26T21:49:44.953Z,50.87
2018-12-26T21:52:14.471Z,47.17
2018-12-26T21:54:43.913Z,46.40
2018-12-26T21:57:13.374Z,44.13
2018-12-26T21:59:42.897Z,40.80
2018-12-26T22:02:12.345Z,44.03
2018-12-26T22:04:42.206Z,53.77
2018-12-26T22:07:12.085Z,43.00
2018-12-26T22:10:00.289Z,41.47
2018-12-26T22:12:29.869Z,39.67
2018-12-26T22:14:59.367Z,44.13
2018-12-26T22:17:28.818Z,44.33
2018-12-26T22:19:58.437Z,44.10
2018-12-26T22:22:27.894Z,46.63
2018-12-26T22:24:57.354Z,38.00
2018-12-26T22:27:45.631Z,38.77
2018-12-26T22:30:15.105Z,41.27
2018-12-26T22:32:44.584Z,38.93
2018-12-26T22:35:14.213Z,47.67
2018-12-26T22:37:43.669Z,39.07
2018-12-26T22:40:13.131Z,42.07
2018-12-26T22:42:42.650Z,42.90
2018-12-26T22:45:12.157Z,41.40
2018-12-26T22:47:41.613Z,47.77
2018-12-26T22:50:11.139Z,40.43
2018-12-26T22:52:40.602Z,41.10
2018-12-26T22:55:10.048Z,41.00
2018-12-26T22:57:39.569Z,36.10
2018-12-26T23:00:09.797Z,43.17
2018-12-26T23:02:39.357Z,36.73
2018-12-26T23:05:19.375Z,35.70
2018-12-26T23:07:49.119Z,32.20
2018-12-26T23:10:19.615Z,31.60
2018-12-26T23:12:48.993Z,30.67
2018-12-26T23:17:49.512Z,29.03
2018-12-26T23:20:19.162Z,39.53
2018-12-26T23:22:48.513Z,39.47
2018-12-26T23:25:18.078Z,28.37
2018-12-26T23:27:47.534Z,31.33
2018-12-26T23:30:16.985Z,29.83
2018-12-26T23:32:47.240Z,32.37
2018-12-26T23:35:16.858Z,33.07
2018-12-26T23:37:46.315Z,38.23
2018-12-26T23:40:15.952Z,36.00
2018-12-26T23:42:45.439Z,35.20
2018-12-26T23:45:14.891Z,35.17
2018-12-26T23:47:44.311Z,33.70
2018-12-26T23:50:13.844Z,37.23
2018-12-26T23:52:43.297Z,39.47
2018-12-26T23:55:13.262Z,33.60
2018-12-26T23:57:42.730Z,36.53
